• Join FlightAware (Why Join?)
  • Login
  • US Flag 
10:51PM EDT


 

Airport Tracker/Info


-or-


 

Live Flight TrackerFlight Track Log ✈ AFL150 ✈ 21-Feb-2014 ✈ UUEE / SVO - MUHA / HAV

Flight Track Log - Related Links

Times and Time Zones

All times are in EST time to prevent confusion due to time zone crossing. See the AFL150 flight status page for this flight to view local times or setup timezone preferences in your user account.

Time Position Orientation Groundspeed Altitude Reporting Facility
EST Latitude Longitude Course Direction KTS MPH feet Rate Location/Type
04:50AM 56.0582 37.0867 315° West  Level FlightAware Approximate
04:51AM 56.1409 36.9389 315° West  Level FlightAware Approximate
04:52AM 56.2235 36.7906 315° West  Level FlightAware Approximate
04:53AM 56.3059 36.6415 315° West  Level FlightAware Approximate
04:54AM 56.3881 36.4919 315° West  Level FlightAware Approximate
04:55AM 56.4702 36.3416 315° West  Level FlightAware Approximate
04:56AM 56.5521 36.1906 315° West  Level FlightAware Approximate
04:57AM 56.6338 36.0390 314° West  Level FlightAware Approximate
04:58AM 56.7153 35.8867 314° West  Level FlightAware Approximate
04:59AM 56.7966 35.7338 314° West  Level FlightAware Approximate
05:00AM 56.8777 35.5802 314° West  Level FlightAware Approximate
05:01AM 56.9586 35.4260 314° West  Level FlightAware Approximate
05:02AM 57.0394 35.2710 314° West  Level FlightAware Approximate
05:03AM 57.1199 35.1154 314° West  Level FlightAware Approximate
05:04AM 57.2003 34.9591 314° West  Level FlightAware Approximate
05:05AM 57.2805 34.8022 313° West  Level FlightAware Approximate
05:06AM 57.3604 34.6445 313° West  Level FlightAware Approximate
05:07AM 57.4402 34.4862 313° West  Level FlightAware Approximate
05:08AM 57.5176 34.3122 309° West  Level FlightAware Approximate
05:09AM 57.5912 34.1431 309° West  Level FlightAware Approximate
05:10AM 57.6645 33.9733 309° West  Level FlightAware Approximate
05:11AM 57.7376 33.8028 309° West  Level FlightAware Approximate
05:12AM 57.8104 33.6316 309° West  Level FlightAware Approximate
05:13AM 57.8830 33.4598 309° West  Level FlightAware Approximate
05:14AM 57.9554 33.2872 308° West  Level FlightAware Approximate
05:15AM 58.0276 33.1139 308° West  Level FlightAware Approximate
05:16AM 58.0995 32.9400 308° West  Level FlightAware Approximate
05:17AM 58.1712 32.7653 308° West  Level FlightAware Approximate
05:18AM 58.2426 32.5899 308° West  Level FlightAware Approximate
05:19AM 58.3138 32.4138 308° West  Level FlightAware Approximate
05:20AM 58.3848 32.2371 307° West  Level FlightAware Approximate
05:21AM 58.4555 32.0596 307° West  Level FlightAware Approximate
05:22AM 58.5260 31.8813 307° West  Level FlightAware Approximate
05:23AM 58.5962 31.7024 307° West  Level FlightAware Approximate
05:24AM 58.6662 31.5229 307° West  Level FlightAware Approximate
05:25AM 58.7360 31.3426 307° West  Level FlightAware Approximate
05:26AM 58.8055 31.1616 307° West  Level FlightAware Approximate
05:27AM 58.8748 30.9798 306° West  Level FlightAware Approximate
05:28AM 58.9438 30.7974 306° West  Level FlightAware Approximate
05:29AM 59.0126 30.6142 306° West  Level FlightAware Approximate
05:30AM 59.0811 30.4303 306° West  Level FlightAware Approximate
05:31AM 59.1493 30.2456 306° West  Level FlightAware Approximate
05:32AM 59.2173 30.0602 306° West  Level FlightAware Approximate
05:33AM 59.2850 29.8741 306° West  Level FlightAware Approximate
05:34AM 59.3524 29.6873 305° West  Level FlightAware Approximate
05:35AM 59.4196 29.4996 305° West  Level FlightAware Approximate
05:36AM 59.4865 29.3113 305° West  Level FlightAware Approximate
05:37AM 59.5532 29.1222 305° West  Level FlightAware Approximate
05:38AM 59.6195 28.9323 305° West  Level FlightAware Approximate
05:39AM 59.6856 28.7417 305° West  Level FlightAware Approximate
05:40AM 59.7514 28.5504 304° West  Level FlightAware Approximate
05:41AM 59.8170 28.3583 304° West  Level FlightAware Approximate
05:42AM 59.8822 28.1654 304° West  Level FlightAware Approximate
05:43AM 59.9472 27.9718 304° West  Level FlightAware Approximate
05:44AM 60.0118 27.7774 304° West  Level FlightAware Approximate
05:45AM 60.0762 27.5823 304° West  Level FlightAware Approximate
05:46AM 60.1404 27.3864 303° West  Level FlightAware Approximate
05:47AM 60.2042 27.1898 303° West  Level FlightAware Approximate
05:48AM 60.2677 26.9923 303° West  Level FlightAware Approximate
05:49AM 60.3309 26.7941 303° West  Level FlightAware Approximate
05:50AM 60.3938 26.5952 303° West  Level FlightAware Approximate
05:51AM 60.4565 26.3955 303° West  Level FlightAware Approximate
05:52AM 60.5188 26.1950 302° West  Level FlightAware Approximate
05:53AM 60.5808 25.9937 302° West  Level FlightAware Approximate
05:54AM 60.6426 25.7916 302° West  Level FlightAware Approximate
05:55AM 60.7040 25.5888 302° West  Level FlightAware Approximate
05:56AM 60.7651 25.3852 302° West  Level FlightAware Approximate
05:57AM 60.8259 25.1809 301° West  Level FlightAware Approximate
05:58AM 60.8864 24.9757 301° West  Level FlightAware Approximate
05:59AM 60.9466 24.7698 301° West  Level FlightAware Approximate
06:00AM 61.0065 24.5631 301° West  Level FlightAware Approximate
06:01AM 61.0660 24.3556 301° West  Level FlightAware Approximate
06:02AM 61.1252 24.1474 301° West  Level FlightAware Approximate
06:03AM 61.1842 23.9384 300° West  Level FlightAware Approximate
06:04AM 61.2427 23.7285 300° West  Level FlightAware Approximate
06:05AM 61.3010 23.5180 300° West  Level FlightAware Approximate
06:06AM 61.3589 23.3066 300° West  Level FlightAware Approximate
06:07AM 61.4165 23.0944 300° West  Level FlightAware Approximate
06:08AM 61.4738 22.8815 299° West  Level FlightAware Approximate
06:09AM 61.5307 22.6677 299° West  Level FlightAware Approximate
06:10AM 61.5873 22.4532 299° West  Level FlightAware Approximate
06:11AM 61.6436 22.2379 299° West  Level FlightAware Approximate
06:12AM 61.6995 22.0219 299° West  Level FlightAware Approximate
06:13AM 61.7551 21.8050 299° West  Level FlightAware Approximate
06:14AM 61.8104 21.5874 298° West  Level FlightAware Approximate
06:15AM 61.8653 21.3690 298° West  Level FlightAware Approximate
06:16AM 61.9198 21.1498 298° West  Level FlightAware Approximate
06:17AM 61.9740 20.9298 298° West  Level FlightAware Approximate
06:18AM 62.0279 20.7090 298° West  Level FlightAware Approximate
06:19AM 62.0814 20.4875 297° West  Level FlightAware Approximate
06:20AM 62.1345 20.2652 297° West  Level FlightAware Approximate
06:21AM 62.1873 20.0421 297° West  Level FlightAware Approximate
06:22AM 62.2397 19.8182 297° West  Level FlightAware Approximate
06:23AM 62.2918 19.5935 297° West  Level FlightAware Approximate
06:24AM 62.3435 19.3681 296° West  Level FlightAware Approximate
06:25AM 62.3948 19.1419 296° West  Level FlightAware Approximate
06:26AM 62.4458 18.9149 296° West  Level FlightAware Approximate
06:26AM 61.1830 21.7424 296° West 402 463 34,000  Level FlightAware ADS-B (ESKB)
06:28AM 61.2544 21.3969 293° West  Level Estimated
06:29AM 61.2999 21.1731 293° West  Level Estimated
06:30AM 61.3451 20.9486 293° West  Level Estimated
06:31AM 61.3899 20.7236 293° West  Level Estimated
06:32AM 61.4343 20.4978 292° West  Level Estimated
06:33AM 61.4784 20.2715 292° West  Level Estimated
06:34AM 61.5221 20.0445 292° West  Level Estimated
06:35AM 61.5654 19.8168 292° West  Level Estimated
06:36AM 61.6083 19.5886 292° West  Level Estimated
06:37AM 61.6509 19.3597 291° West  Level Estimated
06:38AM 61.6930 19.1301 291° West  Level Estimated
06:39AM 61.7348 18.9000 291° West  Level Estimated
06:40AM 61.7762 18.6692 291° West  Level Estimated
06:41AM 61.8172 18.4378 291° West  Level Estimated
06:42AM 61.8578 18.2058 290° West  Level Estimated
06:43AM 61.8980 17.9732 290° West  Level Estimated
06:44AM 61.9379 17.7399 290° West  Level Estimated
06:45AM 61.9773 17.5061 290° West  Level Estimated
06:46AM 62.0163 17.2716 290° West  Level Estimated
06:47AM 62.0550 17.0366 289° West  Level Estimated
06:48AM 62.0932 16.8010 289° West  Level Estimated
06:49AM 62.1311 16.5647 289° West  Level Estimated
06:50AM 62.1685 16.3279 289° West  Level Estimated
06:51AM 62.2055 16.0905 289° West  Level Estimated
06:52AM 62.2421 15.8525 288° West  Level Estimated
06:53AM 62.2783 15.6140 288° West  Level Estimated
06:54AM 62.3141 15.3748 288° West  Level Estimated
06:55AM 62.3495 15.1351 288° West  Level Estimated
06:56AM 62.3845 14.8949 288° West  Level Estimated
06:57AM 62.4191 14.6541 287° West  Level Estimated
06:58AM 62.4532 14.4127 287° West  Level Estimated
06:59AM 62.4869 14.1708 287° West  Level Estimated
07:00AM 62.5202 13.9283 287° West  Level Estimated
07:01AM 62.5531 13.6853 286° West  Level Estimated
07:02AM 62.5856 13.4418 286° West  Level Estimated
07:03AM 62.6176 13.1977 286° West  Level Estimated
07:04AM 62.6493 12.9531 286° West  Level Estimated
07:05AM 62.6804 12.7080 286° West  Level Estimated
07:06AM 62.7112 12.4624 285° West  Level Estimated
07:07AM 62.7415 12.2163 285° West  Level Estimated
07:08AM 62.7714 11.9697 285° West  Level Estimated
07:09AM 62.8009 11.7225 285° West  Level Estimated
07:10AM 62.8299 11.4749 285° West  Level Estimated
07:11AM 62.8585 11.2268 284° West  Level Estimated
07:12AM 62.8867 10.9782 284° West  Level Estimated
07:13AM 62.9144 10.7291 284° West  Level Estimated
07:14AM 62.9417 10.4796 284° West  Level Estimated
07:15AM 62.9685 10.2296 283° West  Level Estimated
07:16AM 62.9949 9.9792 283° West  Level Estimated
07:17AM 63.0209 9.7283 283° West  Level Estimated
07:18AM 63.0464 9.4769 283° West  Level Estimated
07:19AM 63.0714 9.2252 283° West  Level Estimated
07:20AM 63.0961 8.9730 282° West  Level Estimated
07:21AM 63.1202 8.7204 282° West  Level Estimated
07:22AM 63.1440 8.4673 282° West  Level Estimated
07:23AM 63.1672 8.2139 282° West  Level Estimated
07:24AM 63.1900 7.9600 281° West  Level Estimated
07:25AM 63.2124 7.7057 281° West  Level Estimated
07:26AM 63.2343 7.4511 281° West  Level Estimated
07:27AM 63.2557 7.1961 281° West  Level Estimated
07:28AM 63.2767 6.9407 280° West  Level Estimated
07:29AM 63.2972 6.6849 280° West  Level Estimated
07:30AM 63.3173 6.4288 280° West  Level Estimated
07:31AM 63.3369 6.1723 280° West  Level Estimated
07:32AM 63.3561 5.9155 280° West  Level Estimated
07:33AM 63.3748 5.6583 279° West  Level Estimated
07:34AM 63.3930 5.4008 279° West  Level Estimated
07:35AM 63.4108 5.1430 279° West  Level Estimated
07:36AM 63.4281 4.8848 279° West  Level Estimated
07:37AM 63.4449 4.6264 278° West  Level Estimated
07:38AM 63.4613 4.3677 278° West  Level Estimated
07:39AM 63.4772 4.1086 278° West  Level Estimated
07:40AM 63.4926 3.8493 278° West  Level Estimated
07:41AM 63.5075 3.5897 277° West  Level Estimated
07:42AM 63.5220 3.3298 277° West  Level Estimated
07:43AM 63.5361 3.0697 277° West  Level Estimated
07:44AM 63.5496 2.8094 277° West  Level Estimated
07:45AM 63.5627 2.5487 277° West  Level Estimated
07:46AM 63.5753 2.2879 276° West  Level Estimated
07:47AM 63.5874 2.0268 276° West  Level Estimated
07:48AM 63.5991 1.7655 276° West  Level Estimated
07:49AM 63.6103 1.5040 276° West  Level Estimated
07:50AM 63.6210 1.2423 275° West  Level Estimated
07:51AM 63.6312 0.9804 275° West  Level Estimated
07:52AM 63.6409 0.7183 275° West  Level Estimated
07:53AM 63.6502 0.4560 275° West  Level Estimated
07:54AM 63.6590 0.1936 274° West  Level Estimated
07:55AM 63.6674 -0.0690 274° West  Level Estimated
07:56AM 63.6752 -0.3317 274° West  Level Estimated
07:57AM 63.6825 -0.5946 274° West  Level Estimated
07:58AM 63.6894 -0.8576 273° West  Level Estimated
07:59AM 63.6958 -1.1207 273° West  Level Estimated
08:00AM 63.7018 -1.3840 273° West  Level Estimated
08:01AM 63.7072 -1.6473 273° West  Level Estimated
08:02AM 63.7122 -1.9108 273° West  Level Estimated
08:03AM 63.7166 -2.1743 272° West  Level Estimated
08:04AM 63.7206 -2.4380 272° West  Level Estimated
08:05AM 63.7242 -2.7016 272° West  Level Estimated
08:06AM 63.7272 -2.9654 272° West  Level Estimated
08:07AM 63.7297 -3.2292 271° West  Level Estimated
08:08AM 63.7318 -3.4930 271° West  Level Estimated
08:09AM 63.7334 -3.7569 271° West  Level Estimated
08:10AM 63.7345 -4.0208 271° West  Level Estimated
08:11AM 63.7351 -4.2847 270° West  Level Estimated
08:12AM 63.7353 -4.5487 270° West  Level Estimated
08:13AM 63.7349 -4.8126 270° West  Level Estimated
08:14AM 63.7341 -5.0765 270° West  Level Estimated
08:15AM 63.7328 -5.3404 269° West  Level Estimated
08:16AM 63.7310 -5.6042 269° West  Level Estimated
08:17AM 63.7287 -5.8681 269° West  Level Estimated
08:18AM 63.7260 -6.1319 269° West  Level Estimated
08:19AM 63.7227 -6.3956 269° West  Level Estimated
08:20AM 63.7190 -6.6592 268° West  Level Estimated
08:21AM 63.7148 -6.9228 268° West  Level Estimated
08:22AM 63.7101 -7.1863 268° West  Level Estimated
08:23AM 63.7050 -7.4497 268° West  Level Estimated
08:24AM 63.6993 -7.7130 267° West  Level Estimated
08:25AM 63.6932 -7.9763 267° West  Level Estimated
08:26AM 63.6866 -8.2393 267° West  Level Estimated
08:27AM 63.6795 -8.5023 267° West  Level Estimated
08:28AM 63.6720 -8.7651 266° West  Level Estimated
08:29AM 63.6639 -9.0278 266° West  Level Estimated
08:30AM 63.6554 -9.2903 266° West  Level Estimated
08:31AM 63.6464 -9.5527 266° West  Level Estimated
08:32AM 63.6370 -9.8149 265° West  Level Estimated
08:33AM 63.6270 -10.0769 265° West  Level Estimated
08:34AM 63.6166 -10.3387 265° West  Level Estimated
08:35AM 63.6057 -10.6003 265° West  Level Estimated
08:36AM 63.5943 -10.8617 265° West  Level Estimated
08:37AM 63.5824 -11.1229 264° West  Level Estimated
08:38AM 63.5701 -11.3839 264° West  Level Estimated
08:39AM 63.5573 -11.6447 264° West  Level Estimated
08:40AM 63.5440 -11.9052 264° West  Level Estimated
08:41AM 63.5303 -12.1655 263° West  Level Estimated
08:42AM 63.5161 -12.4255 263° West  Level Estimated
08:43AM 63.5014 -12.6853 263° West  Level Estimated
08:44AM 63.4862 -12.9447 263° West  Level Estimated
08:45AM 63.4706 -13.2039 262° West  Level Estimated
08:46AM 63.4545 -13.4628 262° West  Level Estimated
08:47AM 63.4379 -13.7215 262° West  Level Estimated
08:48AM 63.4209 -13.9798 262° West  Level Estimated
08:49AM 63.4034 -14.2378 262° West  Level Estimated
08:50AM 63.3854 -14.4955 261° West  Level Estimated
08:51AM 63.3670 -14.7528 261° West  Level Estimated
08:52AM 63.3481 -15.0099 261° West  Level Estimated
08:53AM 63.3288 -15.2666 261° West  Level Estimated
08:54AM 63.3090 -15.5229 260° West  Level Estimated
08:55AM 63.2887 -15.7789 260° West  Level Estimated
08:56AM 63.2680 -16.0345 260° West  Level Estimated
08:57AM 63.2468 -16.2897 260° West  Level Estimated
08:58AM 63.2252 -16.5446 259° West  Level Estimated
08:59AM 63.2031 -16.7991 259° West  Level Estimated
09:00AM 63.1805 -17.0532 259° West  Level Estimated
09:01AM 63.1575 -17.3069 259° West  Level Estimated
09:02AM 63.1341 -17.5602 259° West  Level Estimated
09:03AM 63.1102 -17.8130 258° West  Level Estimated
09:04AM 63.0858 -18.0655 258° West  Level Estimated
09:05AM 63.0610 -18.3175 258° West  Level Estimated
09:06AM 63.0358 -18.5691 258° West  Level Estimated
09:07AM 63.0101 -18.8202 257° West  Level Estimated
09:08AM 62.9840 -19.0709 257° West  Level Estimated
09:09AM 62.9574 -19.3212 257° West  Level Estimated
09:10AM 62.9304 -19.5710 257° West  Level Estimated
09:11AM 62.9029 -19.8203 257° West  Level Estimated
09:12AM 62.8750 -20.0692 256° West  Level Estimated
09:13AM 62.8466 -20.3176 256° West  Level Estimated
09:14AM 62.8179 -20.5655 256° West  Level Estimated
09:15AM 62.7887 -20.8129 256° West  Level Estimated
09:16AM 62.7590 -21.0598 255° West  Level Estimated
09:17AM 62.7289 -21.3062 255° West  Level Estimated
09:18AM 62.6984 -21.5522 255° West  Level Estimated
09:19AM 62.6675 -21.7976 255° West  Level Estimated
09:20AM 62.6361 -22.0425 255° West  Level Estimated
09:21AM 62.6043 -22.2868 254° West  Level Estimated
09:22AM 62.5721 -22.5307 254° West  Level Estimated
09:23AM 62.5395 -22.7740 254° West  Level Estimated
09:24AM 62.5064 -23.0168 254° West  Level Estimated
09:25AM 62.4729 -23.2590 253° West  Level Estimated
09:26AM 62.4390 -23.5007 253° West  Level Estimated
09:27AM 62.4047 -23.7418 253° West  Level Estimated
09:28AM 62.3700 -23.9824 253° West  Level Estimated
09:29AM 62.3348 -24.2224 253° West  Level Estimated
09:30AM 62.2993 -24.4619 252° West  Level Estimated
09:31AM 62.2633 -24.7008 252° West  Level Estimated
09:32AM 62.2269 -24.9391 252° West  Level Estimated
09:33AM 62.1901 -25.1768 252° West  Level Estimated
09:34AM 62.1529 -25.4140 252° West  Level Estimated
09:35AM 62.1153 -25.6506 251° West  Level Estimated
09:36AM 62.0773 -25.8865 251° West  Level Estimated
09:37AM 62.0389 -26.1219 251° West  Level Estimated
09:38AM 62.0001 -26.3567 251° West  Level Estimated
09:39AM 61.9609 -26.5909 250° West  Level Estimated
09:40AM 61.9213 -26.8245 250° West  Level Estimated
09:41AM 61.8813 -27.0575 250° West  Level Estimated
09:42AM 61.8410 -27.2899 250° West  Level Estimated
09:43AM 61.8002 -27.5216 250° West  Level Estimated
09:44AM 61.7590 -27.7528 249° West  Level Estimated
09:45AM 61.7175 -27.9833 249° West  Level Estimated
09:46AM 61.6755 -28.2132 249° West  Level Estimated
09:47AM 61.6332 -28.4424 249° West  Level Estimated
09:48AM 61.5905 -28.6711 249° West  Level Estimated
09:49AM 61.5474 -28.8991 248° West  Level Estimated
09:50AM 61.5039 -29.1265 248° West  Level Estimated
09:51AM 61.4601 -29.3532 248° West  Level Estimated
09:52AM 61.4159 -29.5793 248° West  Level Estimated
09:53AM 61.3713 -29.8048 248° West  Level Estimated
09:54AM 61.3263 -30.0296 247° West  Level Estimated
09:55AM 61.2810 -30.2537 247° West  Level Estimated
09:56AM 61.2353 -30.4772 247° West  Level Estimated
09:57AM 61.1892 -30.7001 247° West  Level Estimated
09:58AM 61.1428 -30.9223 247° West  Level Estimated
09:59AM 61.0960 -31.1439 246° West  Level Estimated
10:00AM 61.0488 -31.3647 246° West  Level Estimated
10:01AM 61.0013 -31.5850 246° West  Level Estimated
10:02AM 60.9534 -31.8046 246° West  Level Estimated
10:03AM 60.9052 -32.0235 246° West  Level Estimated
10:04AM 60.8566 -32.2417 246° West  Level Estimated
10:05AM 60.8077 -32.4593 245° Southwest  Level Estimated
10:06AM 60.7584 -32.6763 245° Southwest  Level Estimated
10:07AM 60.7088 -32.8925 245° Southwest  Level Estimated
10:08AM 60.6588 -33.1081 245° Southwest  Level Estimated
10:09AM 60.6084 -33.3230 245° Southwest  Level Estimated
10:10AM 60.5578 -33.5372 244° Southwest  Level Estimated
10:11AM 60.5067 -33.7508 244° Southwest  Level Estimated
10:12AM 60.4554 -33.9637 244° Southwest  Level Estimated
10:13AM 60.4037 -34.1759 244° Southwest  Level Estimated
10:14AM 60.3516 -34.3875 244° Southwest  Level Estimated
10:15AM 60.2993 -34.5983 243° Southwest  Level Estimated
10:16AM 60.2466 -34.8085 243° Southwest  Level Estimated
10:17AM 60.1935 -35.0180 243° Southwest  Level Estimated
10:18AM 60.1402 -35.2269 243° Southwest  Level Estimated
10:19AM 60.0865 -35.4350 243° Southwest  Level Estimated
10:20AM 60.0325 -35.6425 243° Southwest  Level Estimated
10:21AM 59.9781 -35.8493 242° Southwest  Level Estimated
10:22AM 59.9235 -36.0554 242° Southwest  Level Estimated
10:23AM 59.8685 -36.2609 242° Southwest  Level Estimated
10:24AM 59.8132 -36.4656 242° Southwest  Level Estimated
10:25AM 59.7576 -36.6697 242° Southwest  Level Estimated
10:26AM 59.7016 -36.8731 241° Southwest  Level Estimated
10:27AM 59.6454 -37.0758 241° Southwest  Level Estimated
10:28AM 59.5888 -37.2779 241° Southwest  Level Estimated
10:29AM 59.5320 -37.4792 241° Southwest  Level Estimated
10:30AM 59.4748 -37.6799 241° Southwest  Level Estimated
10:31AM 59.4173 -37.8799 241° Southwest  Level Estimated
10:32AM 59.3595 -38.0792 240° Southwest  Level Estimated
10:33AM 59.3014 -38.2779 240° Southwest  Level Estimated
10:34AM 59.2431 -38.4758 240° Southwest  Level Estimated
10:35AM 59.1844 -38.6731 240° Southwest  Level Estimated
10:36AM 59.1254 -38.8697 240° Southwest  Level Estimated
10:37AM 59.0661 -39.0656 240° Southwest  Level Estimated
10:38AM 59.0065 -39.2609 239° Southwest  Level Estimated
10:39AM 58.9467 -39.4554 239° Southwest  Level Estimated
10:40AM 58.8865 -39.6493 239° Southwest  Level Estimated
10:41AM 58.8260 -39.8426 239° Southwest  Level Estimated
10:42AM 58.7653 -40.0351 239° Southwest  Level Estimated
10:43AM 58.7043 -40.2270 239° Southwest  Level Estimated
10:44AM 58.6430 -40.4182 238° Southwest  Level Estimated
10:45AM 58.5814 -40.6087 238° Southwest  Level Estimated
10:46AM 58.5195 -40.7986 238° Southwest  Level Estimated
10:47AM 58.4574 -40.9878 238° Southwest  Level Estimated
10:48AM 58.3949 -41.1763 238° Southwest  Level Estimated
10:49AM 58.3322 -41.3641 238° Southwest  Level Estimated
10:50AM 58.2692 -41.5513 237° Southwest  Level Estimated
10:51AM 58.2060 -41.7378 237° Southwest  Level Estimated
10:52AM 58.1425 -41.9237 237° Southwest  Level Estimated
10:53AM 58.0787 -42.1089 237° Southwest  Level Estimated
10:54AM 58.0146 -42.2934 237° Southwest  Level Estimated
10:55AM 57.9503 -42.4773 237° Southwest  Level Estimated
10:56AM 57.8857 -42.6605 237° Southwest  Level Estimated
10:57AM 57.8209 -42.8430 236° Southwest  Level Estimated
10:58AM 57.7557 -43.0249 236° Southwest  Level Estimated
10:59AM 57.6904 -43.2062 236° Southwest  Level Estimated
11:00AM 57.6247 -43.3867 236° Southwest  Level Estimated
11:01AM 57.5589 -43.5667 236° Southwest  Level Estimated
11:02AM 57.4927 -43.7459 236° Southwest  Level Estimated
11:03AM 57.4263 -43.9246 235° Southwest  Level Estimated
11:04AM 57.3597 -44.1026 235° Southwest  Level Estimated
11:05AM 57.2928 -44.2799 235° Southwest  Level Estimated
11:06AM 57.2256 -44.4566 235° Southwest  Level Estimated
11:07AM 57.1582 -44.6326 235° Southwest  Level Estimated
11:08AM 57.0906 -44.8080 235° Southwest  Level Estimated
11:09AM 57.0227 -44.9828 235° Southwest  Level Estimated
11:10AM 56.9546 -45.1569 234° Southwest  Level Estimated
11:11AM 56.8862 -45.3304 234° Southwest  Level Estimated
11:12AM 56.8176 -45.5033 234° Southwest  Level Estimated
11:13AM 56.7488 -45.6755 234° Southwest  Level Estimated
11:14AM 56.6797 -45.8471 234° Southwest  Level Estimated
11:15AM 56.6092 -46.0209 234° Southwest  Level Estimated
11:16AM 56.5385 -46.1940 234° Southwest  Level Estimated
11:17AM 56.4676 -46.3665 233° Southwest  Level Estimated
11:18AM 56.3964 -46.5383 233° Southwest  Level Estimated
11:19AM 56.3250 -46.7095 233° Southwest  Level Estimated
11:20AM 56.2533 -46.8801 233° Southwest  Level Estimated
11:21AM 56.1814 -47.0500 233° Southwest  Level Estimated
11:22AM 56.1093 -47.2193 233° Southwest  Level Estimated
11:22AM 59.4667 -56.7333 232° Southwest 440 506 34,000  Level Gander Center
11:23AM 56.0370 -47.3879 233° Southwest  Level Estimated
11:23AM 59.3833 -56.9000 226° Southwest 450 518 34,000  Level Gander Center
11:24AM 55.9644 -47.5559 232° Southwest  Level Estimated
11:24AM 59.3000 -57.1000 231° Southwest 450 518 34,000  Level Gander Center
11:25AM 55.8916 -47.7233 232° Southwest  Level Estimated
11:25AM 59.2167 -57.2833 228° Southwest 450 518 34,000  Level Gander Center
11:26AM 55.8186 -47.8901 232° Southwest  Level Estimated
11:26AM 59.1167 -57.4167 214° Southwest 450 518 34,700  Level Gander Center
11:27AM 55.7453 -48.0562 232° Southwest  Level Estimated
11:27AM 59.0000 -57.5333 207° Southwest 450 518 36,000  Level Gander Center
11:28AM 58.9000 -57.6667 215° Southwest 450 518 36,000  Level Gander Center
11:29AM 58.7833 -57.8167 214° Southwest 450 518 36,000  Level Gander Center
11:30AM 58.7000 -57.9500 220° Southwest 460 529 36,000  Level Gander Center
11:31AM 58.5833 -58.0833 211° Southwest 450 518 36,000  Level Gander Center
11:32AM 58.4833 -58.2167 215° Southwest 450 518 36,000  Level Gander Center
11:33AM 58.3667 -58.3667 214° Southwest 460 529 36,000  Level Gander Center
11:34AM 58.2667 -58.4667 208° Southwest 450 518 36,000  Level Gander Center
11:35AM 58.1667 -58.6000 215° Southwest 450 518 36,000  Level Gander Center
11:36AM 58.0500 -58.7333 211° Southwest 450 518 36,000  Level Gander Center
11:37AM 57.9500 -58.8667 215° Southwest 440 506 36,000  Level Gander Center
11:38AM 57.8333 -59.0000 211° Southwest 460 529 36,000  Level Gander Center
11:39AM 57.7333 -59.1333 215° Southwest 460 529 36,000  Level Gander Center
11:40AM 57.6167 -59.2500 208° Southwest 460 529 36,000  Level Gander Center
11:41AM 57.5167 -59.3500 208° Southwest 460 529 36,000  Level Gander Center
11:42AM 57.4000 -59.4833 212° Southwest 460 529 36,000  Level Gander Center
11:43AM 57.3000 -59.6167 216° Southwest 460 529 36,000  Level Gander Center
11:44AM 57.2000 -59.7500 216° Southwest 460 529 36,000  Level Gander Center
11:45AM 57.0833 -59.8667 209° Southwest 460 529 36,000  Level Gander Center
11:46AM 56.9667 -60.0000 212° Southwest 460 529 36,000  Level Gander Center
11:47AM 56.8667 -60.1167 213° Southwest 450 518 36,000  Level Gander Center
11:48AM 56.7500 -60.2500 212° Southwest 460 529 36,000  Level Gander Center
11:49AM 56.6333 -60.3667 209° Southwest 470 541 36,000  Level Gander Center
11:50AM 56.5333 -60.5000 216° Southwest 460 529 36,000  Level Gander Center
11:51AM 56.4167 -60.6167 209° Southwest 460 529 36,000  Level Gander Center
11:52AM 56.3167 -60.7333 213° Southwest 460 529 36,000  Level Gander Center
11:53AM 56.2000 -60.8667 212° Southwest 470 541 36,000  Level Gander Center
11:54AM 56.0833 -60.9833 209° Southwest 470 541 36,000  Level Gander Center
11:55AM 55.9833 -61.0667 205° Southwest 470 541 36,000  Level Gander Center
11:56AM 55.8667 -61.2000 213° Southwest 470 541 36,000  Level Gander Center
11:57AM 55.7500 -61.3167 209° Southwest 460 529 36,000  Level Gander Center
11:58AM 55.6500 -61.4333 213° Southwest 470 541 36,000  Level Gander Center
11:59AM 55.5333 -61.5500 210° Southwest 470 541 36,000  Level Gander Center
12:00PM 55.4167 -61.6667 210° Southwest 470 541 36,000  Level Gander Center
12:01PM 55.3000 -61.7833 210° Southwest 470 541 36,000  Level Gander Center
12:02PM 55.1833 -61.9000 210° Southwest 470 541 36,000  Level Gander Center
12:03PM 55.0667 -62.0167 210° Southwest 470 541 36,000  Level Gander Center
12:04PM 54.9667 -62.1333 214° Southwest 470 541 36,000  Level Gander Center
12:05PM 54.8500 -62.2333 206° Southwest 470 541 36,000  Level Gander Center
12:06PM 54.7333 -62.3500 210° Southwest 470 541 36,000  Level Gander Center
12:07PM 54.6167 -62.4667 210° Southwest 470 541 36,000  Level Gander Center
12:09PM 54.3833 -62.6833 208° Southwest 470 541 36,000  Level Gander Center
12:10PM 54.2667 -62.8000 210° Southwest 470 541 36,000  Level Gander Center
12:11PM 54.1667 -62.8833 206° Southwest 470 541 36,000  Level Gander Center
12:12PM 54.0500 -63.0167 214° Southwest 460 529 36,000  Level Gander Center
12:13PM 53.9500 -63.1000 206° Southwest 450 518 36,000  Level Gander Center
12:14PM 53.8333 -63.2000 207° Southwest 450 518 36,000  Level Gander Center
12:15PM 53.7333 -63.3167 215° Southwest 450 518 36,000  Level Gander Center
12:16PM 53.6167 -63.4167 207° Southwest 460 529 36,000  Level Gander Center
12:17PM 53.5000 -63.5333 211° Southwest 440 506 36,000  Level Gander Center
12:18PM 53.3833 -63.6167 203° Southwest 440 506 36,000  Level Gander Center
12:19PM 53.2833 -63.7167 211° Southwest 450 518 36,000 -600 Level Gander Center
12:20PM 53.1833 -63.8167 211° Southwest 440 506 34,900 -1,080 Descending Gander Center
12:21PM 53.0833 -63.9000 207° Southwest 410 472 33,900 -1,020 Descending Gander Center
12:22PM 52.9833 -63.9833 207° Southwest 410 472 32,900 -960 Descending Gander Center
12:23PM 52.8833 -64.0833 211° Southwest 420 483 32,000 -480 Descending Gander Center
12:24PM 52.7667 -64.1833 207° Southwest 430 495 32,000  Level Gander Center
12:25PM 52.6667 -64.2667 207° Southwest 430 495 32,100  Climbing Gander Center
12:26PM 52.5667 -64.3667 211° Southwest 400 460 32,000 -60 Descending Gander Center
12:27PM 52.4667 -64.4333 202° Southwest 400 460 32,000  Level Gander Center
12:28PM 52.3667 -64.5167 207° Southwest 400 460 32,000  Level Gander Center
12:29PM 52.2667 -64.6167 211° Southwest 400 460 32,000  Level Gander Center
12:30PM 52.1833 -64.6833 206° Southwest 400 460 32,000  Level Gander Center
12:31PM 52.0667 -64.7667 204° Southwest 400 460 32,000  Level Gander Center
12:32PM 51.9667 -64.8667 212° Southwest 400 460 32,000  Level Gander Center
12:33PM 51.8167 -65.0000 209° Southwest 420 483 32,000  Level Moncton Center
12:34PM 51.7167 -65.0667 202° Southwest 450 518 32,000  Level Moncton Center
12:35PM 51.6000 -65.1833 212° Southwest 450 518 32,000  Level Moncton Center
12:36PM 51.5000 -65.2500 203° Southwest 450 518 32,000  Level Moncton Center
12:37PM 51.3833 -65.3667 212° Southwest 450 518 32,000  Level Moncton Center
12:38PM 51.2667 -65.4333 200° South 450 518 32,000  Level Moncton Center
12:39PM 51.1667 -65.5500 216° Southwest 450 518 32,000  Level Moncton Center
12:40PM 51.0333 -65.6167 197° South 450 518 32,000  Level Moncton Center
12:41PM 50.9333 -65.7000 208° Southwest 430 495 32,000  Level Moncton Center
12:42PM 50.8333 -65.8000 212° Southwest 410 472 32,000  Level Moncton Center
12:43PM 50.7333 -65.8833 208° Southwest 410 472 32,000  Level Moncton Center
12:44PM 50.6333 -65.9500 203° Southwest 400 460 32,000  Level Moncton Center
12:45PM 50.5333 -66.0333 208° Southwest 400 460 32,000  Level Moncton Center
12:46PM 50.4333 -66.1000 203° Southwest 400 460 32,000  Level Moncton Center
12:47PM 50.3333 -66.1833 208° Southwest 400 460 32,000  Level Moncton Center
12:48PM 50.2333 -66.2500 203° Southwest 400 460 32,000  Level Moncton Center
12:49PM 50.1333 -66.3333 208° Southwest 410 472 32,000  Level Moncton Center
12:50PM 50.0500 -66.3667 194° South 430 495 32,000  Level Gander Center
12:51PM 49.9333 -66.4333 200° South 440 506 32,000  Level Gander Center
12:52PM 49.8167 -66.5000 200° South 440 506 32,000  Level Gander Center
12:53PM 49.7167 -66.5667 203° Southwest 440 506 32,000 900 Level Gander Center
12:54PM 49.5500 -66.6500 198° South 430 495 34,300 1,380 Climbing Moncton Center
12:55PM 49.4500 -66.7167 203° Southwest 410 472 35,400 840 Climbing Moncton Center
12:56PM 49.3333 -66.7667 196° South 410 472 36,000 300 Climbing Moncton Center
12:57PM 49.2333 -66.8333 204° Southwest 420 483 36,000  Level Moncton Center
12:58PM 49.1167 -66.8833 196° South 420 483 36,000  Level Moncton Center
12:59PM 49.0167 -66.9500 204° Southwest 420 483 36,000  Level Moncton Center
01:00PM 48.9000 -67.0000 196° South 420 483 36,000  Level Moncton Center
01:01PM 48.7833 -67.0667 201° Southwest 420 483 36,000  Level Moncton Center
01:02PM 48.6667 -67.1167 196° South 420 483 36,000  Level Moncton Center
01:03PM 48.5500 -67.1833 201° Southwest 420 483 36,000  Level Moncton Center
01:04PM 48.4500 -67.2167 192° South 430 495 36,000  Level Moncton Center
01:05PM 48.3500 -67.3000 209° Southwest 430 495 36,000  Level Moncton Center
01:06PM 48.2333 -67.3667 201° Southwest 420 483 36,000  Level Moncton Center
01:07PM 48.1167 -67.4000 191° South 420 483 36,000  Level Moncton Center
01:08PM 48.0167 -67.4833 209° Southwest 420 483 36,000  Level Moncton Center
01:09PM 47.9000 -67.5167 191° South 420 483 36,000  Level Moncton Center
01:10PM 47.7833 -67.5833 201° Southwest 420 483 36,000  Level Moncton Center
01:11PM 47.6667 -67.6333 196° South 420 483 36,000  Level Moncton Center
01:12PM 47.5667 -67.7000 204° Southwest 420 483 36,000  Level Moncton Center
01:13PM 47.4500 -67.7667 201° Southwest 420 483 36,000  Level Moncton Center
01:14PM 47.3500 -67.8000 193° South 420 483 36,000  Level Moncton Center
01:15PM 47.2333 -67.8500 196° South 420 483 36,000  Level Moncton Center
01:16PM 47.1964 -67.8853 213° Southwest 419 482 36,000  Level Boston Center
01:17PM 47.0672 -67.9506 199° South 412 474 36,000  Level Boston Center
01:18PM 46.9600 -68.0025 198° South 420 483 36,000  Level Boston Center
01:19PM 46.8506 -68.0592 200° South 418 481 36,000  Level Boston Center
01:20PM 46.7386 -68.1119 198° South 419 482 36,000  Level Boston Center
01:21PM 46.6256 -68.1572 195° South 420 483 36,000  Level Boston Center
01:22PM 46.5139 -68.2025 196° South 416 479 36,000  Level Boston Center
01:23PM 46.4019 -68.2500 196° South 417 480 36,000  Level Boston Center
01:24PM 46.2889 -68.2967 196° South 419 482 36,000  Level Boston Center
01:29PM 45.6758 -68.5445 196° South 416 479 36,000  Level FlightAware ADS-B (KBGR)
01:30PM 45.6352 -68.5608 196° South 414 476 36,000  Level FlightAware ADS-B (KBGR)
01:31PM 45.4982 -68.6673 209° Southwest 396 456 36,000  Level FlightAware ADS-B (KBGR)
01:32PM 45.4807 -68.6838 213° Southwest 395 455 36,000  Level FlightAware ADS-B (KBGR)
01:33PM 45.3377 -68.8186 214° Southwest 396 456 36,000  Level FlightAware ADS-B (CYQI)
01:33PM 45.2812 -68.8717 213° Southwest 396 456 36,000  Level FlightAware ADS-B (CYQI)
01:34PM 45.2401 -68.9102 213° Southwest 397 457 36,000  Level FlightAware ADS-B (CYQI)
01:35PM 45.1899 -68.9572 213° Southwest 397 457 36,000  Level FlightAware ADS-B (CYQI)
01:35PM 45.1448 -68.9992 213° Southwest 396 456 36,000  Level FlightAware ADS-B (CYQI)
01:36PM 45.0891 -69.0511 213° Southwest 396 456 36,000  Level FlightAware ADS-B (KBGR)
01:36PM 45.0356 -69.1009 213° Southwest 397 457 36,000  Level FlightAware ADS-B (KBGR)
01:37PM 44.9970 -69.1368 213° Southwest 399 459 36,000  Level FlightAware ADS-B (CYQI)
01:37PM 44.9452 -69.1847 213° Southwest 399 459 36,000  Level FlightAware ADS-B (KBGR)
01:38PM 44.8746 -69.2498 213° Southwest 401 461 36,000  Level FlightAware ADS-B (KBGR)
01:38PM 44.8377 -69.2836 213° Southwest 402 463 36,000  Level FlightAware ADS-B (KBGR)
01:39PM 44.7814 -69.3354 213° Southwest 403 464 36,000  Level FlightAware ADS-B (KBGR)
01:39PM 44.7355 -69.3774 213° Southwest 403 464 36,000  Level FlightAware ADS-B (KBGR)
01:40PM 44.6849 -69.4237 213° Southwest 404 465 36,000  Level FlightAware ADS-B (KBGR)
01:40PM 44.6395 -69.4651 213° Southwest 405 466 36,000  Level FlightAware ADS-B (KBGR)
01:41PM 44.5866 -69.5134 213° Southwest 406 467 36,000  Level FlightAware ADS-B (CYQI)
01:42PM 44.5261 -69.5683 213° Southwest 406 467 36,000  Level FlightAware ADS-B (CYQI)
01:42PM 44.4770 -69.6129 213° Southwest 406 467 36,000  Level FlightAware ADS-B (CYQI)
01:43PM 44.4279 -69.6573 213° Southwest 408 470 36,000  Level FlightAware ADS-B (CYQI)
01:43PM 44.3875 -69.6938 213° Southwest 406 467 36,000  Level FlightAware ADS-B (CYQI)
01:44PM 44.3262 -69.7490 213° Southwest 406 467 36,000  Level FlightAware ADS-B (KBGR)
01:44PM 44.2779 -69.7924 213° Southwest 404 465 36,000  Level FlightAware ADS-B (KBGR)
01:45PM 44.2229 -69.8417 213° Southwest 404 465 36,000  Level FlightAware ADS-B (CYQI)
01:45PM 44.1640 -69.8945 213° Southwest 404 465 36,000  Level FlightAware ADS-B (CYQI)
01:46PM 44.1132 -69.9398 213° Southwest 403 464 36,000  Level FlightAware ADS-B (CYQI)
01:46PM 44.0697 -69.9786 213° Southwest 402 463 36,000  Level FlightAware ADS-B (CYQI)
01:47PM 44.0128 -70.0292 213° Southwest 401 461 36,000  Level FlightAware ADS-B
01:48PM 43.9626 -70.0738 213° Southwest 400 460 36,000  Level FlightAware ADS-B (CYQI)
01:48PM 43.9107 -70.1197 213° Southwest 400 460 36,000  Level FlightAware ADS-B (CYQI)
01:49PM 43.8507 -70.1728 213° Southwest 399 459 36,000  Level FlightAware ADS-B
01:49PM 43.8037 -70.2142 212° Southwest 389 448 36,000  Level FlightAware ADS-B
01:50PM 43.7827 -70.2327 213° Southwest 395 455 36,000  Level FlightAware ADS-B (CYQI)
01:50PM 43.7064 -70.2999 212° Southwest 388 447 36,000  Level FlightAware ADS-B
01:51PM 43.6464 -70.3525 212° Southwest 388 447 36,000  Level FlightAware ADS-B
01:52PM 43.5856 -70.4056 212° Southwest 388 447 36,000  Level FlightAware ADS-B
01:52PM 43.5390 -70.4462 212° Southwest 388 447 36,000  Level FlightAware ADS-B
01:53PM 43.4757 -70.5014 212° Southwest 386 444 36,000  Level FlightAware ADS-B
01:53PM 43.4273 -70.5433 212° Southwest 385 443 36,000  Level FlightAware ADS-B
01:54PM 43.3807 -70.5838 212° Southwest 383 441 36,000  Level FlightAware ADS-B
01:55PM 43.3269 -70.6303 212° Southwest 388 447 36,000  Level FlightAware ADS-B (KBOS)
01:55PM 43.2920 -70.6606 212° Southwest 381 438 36,000  Level FlightAware ADS-B
01:55PM 43.2600 -70.6881 212° Southwest 381 438 36,000  Level FlightAware ADS-B
01:55PM 43.2450 -70.7010 212° Southwest 382 440 36,000  Level FlightAware ADS-B
01:56PM 43.2295 -70.7144 212° Southwest 382 440 36,000  Level FlightAware ADS-B
01:56PM 43.2182 -70.7241 212° Southwest 382 440 36,000  Level FlightAware ADS-B
01:56PM 43.2000 -70.7398 212° Southwest 383 441 36,000  Level FlightAware ADS-B
01:56PM 43.1658 -70.7691 212° Southwest 383 441 36,000  Level FlightAware ADS-B
01:56PM 43.1557 -70.7777 212° Southwest 383 441 36,000  Level FlightAware ADS-B
01:57PM 43.1355 -70.7951 212° Southwest 383 441 36,000  Level FlightAware ADS-B
01:57PM 43.1231 -70.8057 212° Southwest 384 442 36,000  Level FlightAware ADS-B
01:57PM 43.1045 -70.8217 212° Southwest 384 442 36,000  Level FlightAware ADS-B
01:57PM 43.0546 -70.8644 212° Southwest 391 450 36,000  Level FlightAware ADS-B (KBOS)
01:58PM 43.0275 -70.8876 212° Southwest 392 451 36,000  Level FlightAware ADS-B (KBOS)
01:58PM 42.9778 -70.9301 212° Southwest 392 451 36,000  Level FlightAware ADS-B (KBOS)
01:58PM 42.9820 -70.9265 32° Northeast 392 451 36,000  Level FlightAware ADS-B
01:59PM 42.9375 -70.9644 212° Southwest 392 451 36,000  Level FlightAware ADS-B
01:59PM 42.9310 -70.9699 212° Southwest 385 443 36,000  Level FlightAware ADS-B
01:59PM 42.8856 -71.0085 212° Southwest 386 444 36,000  Level FlightAware ADS-B
02:00PM 42.8420 -71.0455 212° Southwest 385 443 36,000  Level FlightAware ADS-B
02:00PM 42.8420 -71.0455 212° Southwest 391 450 36,000  Level FlightAware ADS-B
02:00PM 42.7809 -71.0973 212° Southwest 390 449 36,000  Level FlightAware ADS-B
02:01PM 42.7701 -71.1065 212° Southwest 390 449 36,000  Level FlightAware ADS-B
02:01PM 42.7039 -71.1623 212° Southwest 389 448 36,000  Level FlightAware ADS-B
02:01PM 42.6858 -71.1776 212° Southwest 382 440 36,000  Level FlightAware ADS-B
02:02PM 42.6422 -71.2143 212° Southwest 386 444 36,000  Level FlightAware ADS-B (KBOS)
02:02PM 42.6310 -71.2237 212° Southwest 380 437 36,000  Level FlightAware ADS-B
02:02PM 42.6177 -71.2350 212° Southwest 386 444 36,000  Level FlightAware ADS-B
02:03PM 42.5803 -71.2664 212° Southwest 380 437 36,000  Level FlightAware ADS-B
02:03PM 42.5499 -71.2920 212° Southwest 380 437 36,000  Level FlightAware ADS-B
02:03PM 42.5019 -71.3322 212° Southwest 388 447 36,000  Level FlightAware ADS-B (KBOS)
02:04PM 42.4612 -71.3662 212° Southwest 388 447 36,000  Level FlightAware ADS-B (KBOS)
02:05PM 42.4135 -71.4061 212° Southwest 388 447 36,000  Level FlightAware ADS-B (KBOS)
02:05PM 42.3502 -71.4588 212° Southwest 379 436 36,000  Level FlightAware ADS-B
02:06PM 42.3045 -71.4968 212° Southwest 380 437 36,000  Level FlightAware ADS-B
02:06PM 42.2439 -71.5471 212° Southwest 379 436 36,000  Level FlightAware ADS-B
02:07PM 42.1986 -71.5846 212° Southwest 379 436 36,000  Level FlightAware ADS-B
02:07PM 42.1526 -71.6227 212° Southwest 379 436 36,000  Level FlightAware ADS-B
02:08PM 42.0927 -71.6721 211° Southwest 378 435 36,000  Level FlightAware ADS-B
02:08PM 42.0467 -71.7099 211° Southwest 378 435 36,000  Level FlightAware ADS-B
02:09PM 42.0011 -71.7474 211° Southwest 379 436 36,000  Level FlightAware ADS-B
02:09PM 41.9940 -71.7533 212° Southwest 386 444 36,000  Level FlightAware ADS-B (KOWD)
02:10PM 41.9472 -71.7917 211° Southwest 387 445 36,000  Level FlightAware ADS-B
02:10PM 41.8961 -71.8335 211° Southwest 380 437 36,000  Level FlightAware ADS-B
02:10PM 41.8640 -71.8598 211° Southwest 379 436 36,000  Level FlightAware ADS-B
02:11PM 41.8510 -71.8704 211° Southwest 386 444 36,000  Level FlightAware ADS-B
02:11PM 41.8032 -71.9095 211° Southwest 377 434 36,000  Level FlightAware ADS-B
02:11PM 41.7947 -71.9164 211° Southwest 376 433 36,000  Level FlightAware ADS-B
02:11PM 41.7834 -71.9256 211° Southwest 383 441 36,000  Level FlightAware ADS-B (KOWD)
02:12PM 41.7547 -71.9490 211° Southwest 376 433 36,000  Level FlightAware ADS-B
02:12PM 41.7325 -71.9671 211° Southwest 383 441 36,000  Level FlightAware ADS-B
02:12PM 41.6877 -72.0035 211° Southwest 383 441 36,000  Level FlightAware ADS-B (KSNC)
02:13PM 41.6709 -72.0172 211° Southwest 377 434 36,000  Level FlightAware ADS-B
02:13PM 41.6596 -72.0263 211° Southwest 377 434 36,000  Level FlightAware ADS-B
02:13PM 41.6103 -72.0662 211° Southwest 386 444 36,000  Level FlightAware ADS-B (KSNC)
02:14PM 41.5648 -72.1031 211° Southwest 387 445 36,000  Level FlightAware ADS-B (KSNC)
02:14PM 41.5167 -72.1419 211° Southwest 387 445 36,000  Level FlightAware ADS-B (KSNC)
02:15PM 41.4749 -72.1756 211° Southwest 387 445 36,000  Level FlightAware ADS-B (KOWD)
02:15PM 41.4122 -72.2261 211° Southwest 388 447 36,000  Level FlightAware ADS-B (KSNC)
02:16PM 41.3608 -72.2673 211° Southwest 389 448 36,000  Level FlightAware ADS-B (KSNC)
02:16PM 41.3139 -72.3050 211° Southwest 389 448 36,000  Level FlightAware ADS-B (KSNC)
02:17PM 41.2810 -72.3313 211° Southwest 389 448 36,000  Level FlightAware ADS-B
02:18PM 41.2187 -72.3810 211° Southwest 388 447 36,000  Level FlightAware ADS-B (KSNC)
02:18PM 41.1662 -72.4229 211° Southwest 388 447 36,000  Level FlightAware ADS-B (KSNC)
02:19PM 41.0987 -72.4766 211° Southwest 385 443 36,000  Level FlightAware ADS-B (KSNC)
02:19PM 41.0558 -72.5107 211° Southwest 384 442 36,000  Level FlightAware ADS-B (KSNC)
02:20PM 40.9981 -72.5564 211° Southwest 383 441 36,000  Level FlightAware ADS-B
02:20PM 40.9462 -72.5975 211° Southwest 384 442 36,000  Level FlightAware ADS-B
02:21PM 40.9010 -72.6332 211° Southwest 385 443 36,000  Level FlightAware ADS-B
02:22PM 40.8494 -72.6739 211° Southwest 384 442 36,000  Level FlightAware ADS-B (KSNC)
02:22PM 40.8036 -72.7098 211° Southwest 382 440 36,000  Level FlightAware ADS-B (KSNC)
02:23PM 40.7566 -72.7470 211° Southwest 381 438 36,000  Level FlightAware ADS-B
02:23PM 40.7044 -72.7879 211° Southwest 379 436 36,000  Level FlightAware ADS-B (KSNC)
02:24PM 40.6552 -72.8264 211° Southwest 381 438 36,000  Level FlightAware ADS-B (KSNC)
02:24PM 40.6100 -72.8617 211° Southwest 382 440 36,000  Level FlightAware ADS-B (KSNC)
02:25PM 40.5630 -72.8983 211° Southwest 382 440 36,000  Level FlightAware ADS-B (KSNC)
02:25PM 40.5155 -72.9354 211° Southwest 380 437 36,000  Level FlightAware ADS-B (KSNC)
02:26PM 40.4597 -72.9787 211° Southwest 379 436 36,000  Level FlightAware ADS-B (KSNC)
02:26PM 40.4202 -73.0094 211° Southwest 378 435 36,000  Level FlightAware ADS-B (KSNC)
02:27PM 40.3676 -73.0502 211° Southwest 378 435 36,000  Level FlightAware ADS-B (KSNC)
02:27PM 40.3232 -73.0846 211° Southwest 377 434 36,000  Level FlightAware ADS-B (KSNC)
02:28PM 40.2592 -73.1340 210° Southwest 376 433 36,000  Level FlightAware ADS-B (KSNC)
02:29PM 40.2161 -73.1672 210° Southwest 376 433 36,000 720 Level FlightAware ADS-B (KSNC)
02:29PM 40.1452 -73.2216 210° Southwest 374 430 36,900 1,380 Climbing FlightAware ADS-B (KWWD)
02:30PM 40.0910 -73.2657 212° Southwest 359 413 37,900 1,080 Climbing FlightAware ADS-B (KWWD)
02:30PM 40.0603 -73.2975 218° Southwest 363 418 38,000 60 Climbing FlightAware ADS-B (KWWD)
02:31PM 40.0242 -73.3387 221° Southwest 361 415 38,000  Level FlightAware ADS-B (KSNC)
02:32PM 39.9730 -73.3965 221° Southwest 361 415 38,000  Level FlightAware ADS-B (KSNC)
02:32PM 39.9359 -73.4380 221° Southwest 359 413 38,000  Level FlightAware ADS-B (KSNC)
02:33PM 39.8951 -73.4813 219° Southwest 361 415 38,000  Level FlightAware ADS-B (KSNC)
02:33PM 39.8379 -73.5305 213° Southwest 354 407 38,000  Level FlightAware ADS-B (KWWD)
02:34PM 39.7947 -73.5679 214° Southwest 361 415 38,000  Level FlightAware ADS-B (KPVU)
02:34PM 39.7512 -73.6054 214° Southwest 361 415 38,000  Level FlightAware ADS-B (KSNC)
02:35PM 39.7171 -73.6347 213° Southwest 356 410 38,000  Level FlightAware ADS-B (KWWD)
02:35PM 39.6751 -73.6708 213° Southwest 364 419 38,000  Level FlightAware ADS-B (KSNC)
02:36PM 39.6308 -73.7088 213° Southwest 366 421 38,000  Level FlightAware ADS-B (KWWD)
02:36PM 39.5863 -73.7471 214° Southwest 367 422 38,000  Level FlightAware ADS-B (KSNC)
02:37PM 39.5425 -73.7845 213° Southwest 366 421 38,000  Level FlightAware ADS-B (KPVU)
02:37PM 39.5020 -73.8192 213° Southwest 366 421 38,000  Level FlightAware ADS-B (KSNC)
02:38PM 39.4485 -73.8649 213° Southwest 364 419 38,000  Level FlightAware ADS-B (KSNC)
02:38PM 39.4161 -73.8925 213° Southwest 364 419 38,000  Level FlightAware ADS-B (KSNC)
02:39PM 39.3618 -73.9388 213° Southwest 356 410 38,000  Level FlightAware ADS-B (KWWD)
02:39PM 39.3196 -73.9747 213° Southwest 363 418 38,000  Level FlightAware ADS-B (KWWD)
02:40PM 39.2764 -74.0114 213° Southwest 365 420 38,000  Level FlightAware ADS-B (KWWD)
02:40PM 39.2440 -74.0389 213° Southwest 364 419 38,000  Level FlightAware ADS-B (KSNC)
02:41PM 39.1789 -74.0941 213° Southwest 369 425 38,000  Level FlightAware ADS-B (KWWD)
02:42PM 39.1193 -74.1442 213° Southwest 371 427 38,000  Level FlightAware ADS-B (KWWD)
02:42PM 39.0761 -74.1808 213° Southwest 370 426 38,000  Level FlightAware ADS-B (KWWD)
02:43PM 39.0205 -74.2277 213° Southwest 368 423 38,000  Level FlightAware ADS-B (KWWD)
02:43PM 38.9771 -74.2641 213° Southwest 364 419 38,000  Level FlightAware ADS-B (KWWD)
02:44PM 38.9234 -74.3092 213° Southwest 363 418 38,000  Level FlightAware ADS-B (KWWD)
02:45PM 38.8807 -74.3449 213° Southwest 366 421 38,000  Level FlightAware ADS-B (KWWD)
02:45PM 38.8375 -74.3810 213° Southwest 366 421 38,000  Level FlightAware ADS-B (KWWD)
02:46PM 38.7915 -74.4168 211° Southwest 363 418 38,000  Level FlightAware ADS-B (KWWD)
02:46PM 38.7644 -74.4284 198° South 381 438 38,000  Level FlightAware ADS-B (KWWD)
02:46PM 38.7058 -74.4417 190° South 376 433 38,000  Level FlightAware ADS-B (KWWD)
02:47PM 38.6408 -74.4546 189° South 372 428 38,000 420 Level FlightAware ADS-B (KWWD)
02:48PM 38.5874 -74.4670 190° South 380 437 38,500 1,140 Climbing FlightAware ADS-B (KWWD)
02:48PM 38.5350 -74.4795 191° South 379 436 39,200 1,380 Climbing FlightAware ADS-B (KWWD)
02:49PM 38.4840 -74.4903 189° South 361 415 39,900 780 Climbing FlightAware ADS-B (KWWD)
02:49PM 38.4392 -74.5083 197° South 353 406 40,000 120 Climbing FlightAware ADS-B (KWWD)
02:49PM 38.4126 -74.5241 205° Southwest 348 400 40,000  Level FlightAware ADS-B (KWWD)
02:50PM 38.3656 -74.5658 215° Southwest 340 391 40,000  Level FlightAware ADS-B (KWWD)
02:50PM 38.3265 -74.6003 215° Southwest 339 390 40,000  Level FlightAware ADS-B (KWWD)
02:51PM 38.2871 -74.6350 215° Southwest 341 392 40,000  Level FlightAware ADS-B (KWWD)
02:51PM 38.2468 -74.6703 215° Southwest 341 392 40,000  Level FlightAware ADS-B (KWWD)
02:52PM 38.2070 -74.7052 214° Southwest 341 392 40,000  Level FlightAware ADS-B (KWWD)
02:52PM 38.1686 -74.7387 214° Southwest 350 403 40,000  Level FlightAware ADS-B (KWWD)
02:53PM 38.1281 -74.7740 214° Southwest 349 402 40,000  Level FlightAware ADS-B (KWWD)
02:54PM 38.0749 -74.8204 214° Southwest 349 402 40,000  Level FlightAware ADS-B (KWWD)
02:54PM 38.0213 -74.8572 208° Southwest 357 411 40,000  Level FlightAware ADS-B (KWWD)
02:55PM 37.9566 -74.8957 205° Southwest 357 411 40,000  Level FlightAware ADS-B (KWWD)
02:55PM 37.9102 -74.9235 205° Southwest 361 415 40,000  Level FlightAware ADS-B (KWWD)
02:56PM 37.8653 -74.9505 205° Southwest 356 410 40,000  Level FlightAware ADS-B (KWWD)
02:57PM 37.8036 -74.9875 205° Southwest 357 411 40,000  Level FlightAware ADS-B (KWWD)
02:57PM 37.7449 -75.0227 205° Southwest 357 411 40,000  Level FlightAware ADS-B (KWWD)
02:58PM 37.6983 -75.0506 205° Southwest 356 410 40,000  Level FlightAware ADS-B (KWWD)
02:58PM 37.6375 -75.0869 205° Southwest 360 414 40,000  Level FlightAware ADS-B (KWWD)
02:59PM 37.5921 -75.1138 205° Southwest 354 407 40,000  Level FlightAware ADS-B (KWWD)
03:00PM 37.5340 -75.1484 205° Southwest 345 397 40,000  Level FlightAware ADS-B (KWWD)
03:00PM 37.4874 -75.1710 201° Southwest 362 417 40,000  Level FlightAware ADS-B (KWWD)
03:01PM 37.4372 -75.1765 185° South 368 423 40,000  Level FlightAware ADS-B (KWWD)
03:01PM 37.3869 -75.1809 184° South 373 429 40,000  Level FlightAware ADS-B (KWWD)
03:02PM 37.3341 -75.1897 187° South 371 427 40,000  Level FlightAware ADS-B (KWWD)
03:02PM 37.2834 -75.1987 188° South 361 415 40,000  Level FlightAware ADS-B (KWWD)
03:03PM 37.2147 -75.2119 189° South 363 418 40,000  Level FlightAware ADS-B (KWWD)
03:03PM 37.1509 -75.2253 189° South 377 434 40,000  Level FlightAware ADS-B (KWWD)
03:04PM 37.0954 -75.2361 189° South 377 434 40,000  Level FlightAware ADS-B (KWWD)
03:05PM 37.0262 -75.2486 188° South 372 428 40,000  Level FlightAware ADS-B (KWWD)
03:05PM 37.0052 -75.2562 196° South 364 419 40,000  Level FlightAware ADS-B (KWWD)
03:05PM 36.9517 -75.2903 207° Southwest 359 413 40,000  Level FlightAware ADS-B (KWWD)
03:06PM 36.8927 -75.3268 206° Southwest 361 415 40,000  Level FlightAware ADS-B (KWWD)
03:07PM 36.8456 -75.3559 206° Southwest 362 417 40,000  Level FlightAware ADS-B (KNTU)
03:07PM 36.8271 -75.3674 206° Southwest 365 420 40,000  Level FlightAware ADS-B (KNTU)
03:07PM 36.7658 -75.4053 206° Southwest 364 419 40,000  Level FlightAware ADS-B (KWWD)
03:08PM 36.6997 -75.4462 206° Southwest 366 421 40,000  Level FlightAware ADS-B (KNTU)
03:08PM 36.6826 -75.4568 206° Southwest 359 413 40,000  Level FlightAware ADS-B (KWWD)
03:09PM 36.6202 -75.4952 206° Southwest 359 413 40,000  Level FlightAware ADS-B (KWWD)
03:10PM 36.5739 -75.5237 206° Southwest 368 423 40,000  Level FlightAware ADS-B (KNTU)
03:10PM 36.5135 -75.5606 206° Southwest 367 422 40,000  Level FlightAware ADS-B (KNTU)
03:11PM 36.4514 -75.5985 206° Southwest 368 423 40,000  Level FlightAware ADS-B (KNTU)
03:12PM 36.3927 -75.6343 206° Southwest 369 425 40,000  Level FlightAware ADS-B (KNTU)
03:13PM 36.3100 -75.6846 206° Southwest 373 429 40,000  Level FlightAware ADS-B (KNTU)
03:13PM 36.2801 -75.7028 206° Southwest 373 429 40,000  Level FlightAware ADS-B (KNTU)
03:14PM 36.2025 -75.7498 206° Southwest 373 429 40,000  Level FlightAware ADS-B (KNTU)
03:15PM 36.0832 -75.8219 206° Southwest 375 432 40,000  Level FlightAware ADS-B (KNTU)
03:16PM 36.0186 -75.8609 206° Southwest 378 435 40,000  Level FlightAware ADS-B (KNTU)
03:16PM 36.0113 -75.8653 206° Southwest 379 436 40,000  Level FlightAware ADS-B (KNTU)
03:17PM 35.8572 -75.9558 206° Southwest 371 427 40,000  Level Washington Center
03:18PM 35.7608 -76.0119 205° Southwest 376 433 40,000 -60 Level Washington Center
03:19PM 35.6669 -76.0675 206° Southwest 376 433 39,900  Descending Washington Center
03:20PM 35.5728 -76.1258 207° Southwest 382 440 40,000  Climbing Washington Center
03:21PM 35.4764 -76.1814 205° Southwest 382 440 40,000  Level Washington Center
03:22PM 35.3781 -76.2392 206° Southwest 382 440 40,000  Level Washington Center
03:23PM 35.2839 -76.2944 206° Southwest 382 440 40,000  Level Washington Center
03:24PM 35.1897 -76.3494 206° Southwest 382 440 40,000  Level Washington Center
03:25PM 35.0953 -76.4144 209° Southwest 382 440 40,000  Level Washington Center
03:26PM 35.0011 -76.4694 206° Southwest 388 447 40,000  Level Washington Center
03:27PM 34.9089 -76.5242 206° Southwest 388 447 40,000  Level Washington Center
03:28PM 34.8144 -76.5811 206° Southwest 388 447 40,000  Level Washington Center
03:29PM 34.7222 -76.6333 205° Southwest 382 440 40,000 -60 Level Washington Center
03:30PM 34.6236 -76.6850 203° Southwest 377 434 39,900  Descending Washington Center
03:31PM 34.5294 -76.7392 205° Southwest 382 440 40,000  Climbing Washington Center
03:32PM 34.4369 -76.7908 205° Southwest 382 440 40,000  Level Washington Center
03:33PM 34.3508 -76.8575 213° Southwest 382 440 40,000 -60 Level Washington Center
03:34PM 34.2997 -76.9622 239° Southwest 360 414 39,900  Descending Washington Center
03:35PM 34.2381 -77.0592 232° Southwest 360 414 40,000  Climbing Washington Center
03:36PM 34.1658 -77.1508 226° Southwest 372 428 40,000  Level Washington Center
03:39PM 33.9883 -77.3128 217° Southwest 370 426 40,000  Level Jacksonville Center
03:40PM 33.9042 -77.3881 217° Southwest 380 437 40,000  Level Jacksonville Center
03:41PM 33.8242 -77.4706 221° Southwest 380 437 40,000  Level Jacksonville Center
03:42PM 33.7483 -77.5528 222° Southwest 380 437 40,000  Level Jacksonville Center
03:43PM 33.6683 -77.6347 220° Southwest 380 437 40,000  Level Jacksonville Center
03:44PM 33.5867 -77.7269 223° Southwest 380 437 40,000  Level Jacksonville Center
03:45PM 33.5086 -77.8111 222° Southwest 374 430 40,000  Level Jacksonville Center
03:46PM 33.4308 -77.8953 222° Southwest 374 430 40,000  Level Jacksonville Center
03:47PM 33.3458 -77.9647 214° Southwest 374 430 40,000  Level Jacksonville Center
03:48PM 33.2475 -78.0147 203° Southwest 374 430 40,000  Level Jacksonville Center
03:49PM 33.1517 -78.0672 205° Southwest 383 441 40,000  Level Jacksonville Center
03:50PM 33.0533 -78.1197 204° Southwest 388 447 40,000  Level Jacksonville Center
03:51PM 32.9553 -78.1742 205° Southwest 388 447 40,000  Level Jacksonville Center
03:52PM 32.8572 -78.2289 205° Southwest 388 447 40,000  Level Jacksonville Center
03:53PM 32.7464 -78.2297 180° South 385 443 40,000  Level Jacksonville Center
03:54PM 32.6342 -78.2406 185° South 401 461 40,000  Level Jacksonville Center
03:55PM 32.5272 -78.2803 197° South 406 467 40,000  Level Jacksonville Center
03:56PM 32.4178 -78.3178 196° South 411 473 40,000  Level Jacksonville Center
03:57PM 32.3128 -78.3575 198° South 411 473 40,000  Level Jacksonville Center
03:58PM 32.2036 -78.3950 196° South 411 473 40,000  Level Jacksonville Center
03:59PM 32.0964 -78.4319 196° South 411 473 40,000  Level Jacksonville Center
04:00PM 31.9869 -78.4692 196° South 411 473 40,000  Level Jacksonville Center
04:01PM 31.8756 -78.5089 197° South 411 473 40,000  Level Jacksonville Center
04:02PM 31.7661 -78.5361 192° South 403 464 40,000  Level Jacksonville Center
04:03PM 31.6589 -78.5825 200° South 403 464 40,000  Level Jacksonville Center
04:04PM 31.5575 -78.6042 190° South 414 476 40,000 -60 Level Jacksonville Center
04:05PM 31.4372 -78.5636 164° South 414 476 39,900  Descending Jacksonville Center
04:06PM 31.3167 -78.5206 163° South 435 501 40,000  Climbing Jacksonville Center
04:07PM 31.1983 -78.4797 164° South 442 509 39,900  Descending Jacksonville Center
04:08PM 31.0767 -78.4589 172° South 442 509 40,000  Climbing Jacksonville Center
04:09PM 30.9319 -78.4392 173° South 461 531 40,000  Level Jacksonville Center
04:10PM 30.8225 -78.4153 169° South 441 507 40,000 -60 Level Jacksonville Center
04:11PM 30.6997 -78.3728 163° South 453 521 39,900 -60 Descending Jacksonville Center
04:12PM 30.5814 -78.3275 162° South 450 518 39,900  Level Jacksonville Center
04:14PM 30.2967 -78.2300 164° South 453 521 40,000  Climbing Miami Center
04:15PM 30.1761 -78.1972 167° South 447 514 40,000  Level Miami Center
04:16PM 30.0428 -78.1858 176° South 454 522 40,000  Level Miami Center
04:17PM 29.9447 -78.1967 185° South 436 502 40,000  Level Miami Center
04:18PM 29.8217 -78.2094 185° South 447 514 40,000  Level Miami Center
04:19PM 29.6983 -78.2342 190° South 452 520 40,000  Level Miami Center
04:20PM 29.5831 -78.2733 196° South 447 514 40,000  Level Miami Center
04:21PM 29.4722 -78.3267 203° Southwest 442 509 40,000 -60 Level Miami Center
04:22PM 29.3569 -78.3753 200° South 442 509 39,900  Descending Miami Center
04:23PM 29.2497 -78.4356 206° Southwest 441 507 40,000  Climbing Miami Center
04:24PM 29.1386 -78.4981 206° Southwest 435 501 40,000  Level Miami Center
04:25PM 29.0375 -78.5631 209° Southwest 435 501 40,000  Level Miami Center
04:31PM 28.4323 -78.9247 209° Southwest 434 499 40,000  Level FlightAware ADS-B (KMCO)
04:31PM 28.3655 -78.9651 208° Southwest 434 499 40,000  Level FlightAware ADS-B (KMCO)
04:32PM 28.2952 -79.0077 208° Southwest 432 497 40,000  Level FlightAware ADS-B (KMCO)
04:32PM 28.2392 -79.0417 208° Southwest 433 498 40,000  Level FlightAware ADS-B (KMCO)
04:33PM 28.1682 -79.0844 208° Southwest 434 499 40,000  Level FlightAware ADS-B (KMCO)
04:34PM 28.0825 -79.1359 208° Southwest 435 501 40,000  Level FlightAware ADS-B (KMCO)
04:35PM 28.0142 -79.1769 208° Southwest 436 502 40,000  Level FlightAware ADS-B (KMCO)
04:35PM 27.9114 -79.2386 208° Southwest 438 504 40,000  Level FlightAware ADS-B (KMCO)
04:36PM 27.8563 -79.2715 208° Southwest 438 504 40,000  Level FlightAware ADS-B (KMCO)
04:37PM 27.7385 -79.3420 208° Southwest 442 509 40,000  Level FlightAware ADS-B (KMCO)
04:38PM 27.6706 -79.3826 208° Southwest 443 510 40,000  Level FlightAware ADS-B (KMCO)
04:38PM 27.6172 -79.4145 208° Southwest 444 511 40,000  Level FlightAware ADS-B (KMCO)
04:39PM 27.5590 -79.4491 208° Southwest 445 512 40,000  Level FlightAware ADS-B (KMCO)
04:39PM 27.5018 -79.4831 208° Southwest 446 513 40,000  Level FlightAware ADS-B (KMCO)
04:40PM 27.4276 -79.5271 208° Southwest 445 512 40,000  Level FlightAware ADS-B (KMCO)
04:40PM 27.3735 -79.5591 208° Southwest 445 512 40,000  Level FlightAware ADS-B (KMCO)
04:41PM 27.3185 -79.5917 208° Southwest 443 510 40,000  Level FlightAware ADS-B (KMCO)
04:41PM 27.2689 -79.6210 208° Southwest 443 510 40,000  Level FlightAware ADS-B (KMCO)
04:42PM 27.2083 -79.6568 208° Southwest 446 513 40,000  Level FlightAware ADS-B (KMCO)
04:43PM 27.1174 -79.7106 208° Southwest 448 516 40,000  Level FlightAware ADS-B (KMCO)
04:43PM 27.0523 -79.7489 208° Southwest 449 517 40,000  Level FlightAware ADS-B (KMCO)
04:44PM 26.9883 -79.7865 208° Southwest 450 518 40,000  Level FlightAware ADS-B (KMCO)
04:45PM 26.9123 -79.8312 208° Southwest 451 519 40,000  Level FlightAware ADS-B (KMCO)
04:45PM 26.8443 -79.8711 208° Southwest 453 521 40,000  Level FlightAware ADS-B (KMCO)
04:45PM 26.8292 -79.8800 208° Southwest 453 521 40,000  Level FlightAware ADS-B (KMCO)
04:46PM 26.7883 -79.9039 208° Southwest 454 522 40,000  Level FlightAware ADS-B (KMIA)
04:47PM 26.7193 -79.9444 208° Southwest 455 524 40,000  Level FlightAware ADS-B (KMCO)
04:49PM 26.4262 -80.1152 208° Southwest 456 525 40,000  Level FlightAware ADS-B (KMCO)
04:50PM 26.3758 -80.1444 207° Southwest 455 524 40,000  Level FlightAware ADS-B (KMCO)
04:52PM 26.1228 -80.2910 207° Southwest 452 520 40,000  Level FlightAware ADS-B (KMCO)
04:53PM 26.0234 -80.3484 207° Southwest 452 520 40,000  Level FlightAware ADS-B (KMCO)
04:53PM 25.9563 -80.4066 218° Southwest 434 499 40,000  Level FlightAware ADS-B (KMCO)
04:54PM 25.9063 -80.4622 225° Southwest 435 501 40,000  Level FlightAware ADS-B (KMCO)
04:55PM 25.8269 -80.5544 225° Southwest 432 497 40,000  Level Miami Center
04:56PM 25.7342 -80.6647 227° Southwest 445 512 40,000  Level Miami Center
04:57PM 25.6461 -80.7564 223° Southwest 445 512 40,000  Level Miami Center
04:58PM 25.5603 -80.8481 224° Southwest 440 506 40,000  Level Miami Center
04:59PM 25.4764 -80.9372 224° Southwest 434 499 40,000  Level Miami Center
05:00PM 25.3881 -81.0331 224° Southwest 434 499 40,000  Level Miami Center
05:01PM 25.3039 -81.1267 225° Southwest 434 499 40,000 -540 Level Miami Center
05:02PM 25.2153 -81.2225 224° Southwest 434 499 39,000 -1,020 Descending Miami Center
05:03PM 25.1269 -81.3156 224° Southwest 439 505 38,000 -1,020 Descending Miami Center
05:04PM 25.0383 -81.4108 224° Southwest 439 505 37,000 -960 Descending Miami Center
05:05PM 24.9497 -81.5108 226° Southwest 444 511 36,100 -960 Descending Miami Center
05:06PM 24.8697 -81.5947 224° Southwest 450 518 35,100 -1,020 Descending Miami Center
05:07PM 24.7808 -81.6942 225° Southwest 450 518 34,100 -960 Descending Miami Center
05:08PM 24.6900 -81.7958 225° Southwest 456 525 33,200 -840 Descending Miami Center
05:09PM 24.5842 -81.9011 222° Southwest 471 542 32,500 -720 Descending Miami Center
05:10PM 24.4908 -81.9978 223° Southwest 466 536 31,800 -900 Descending Miami Center
05:11PM 24.4019 -82.0967 225° Southwest 466 536 30,800 -1,500 Descending Miami Center
05:12PM 24.3108 -82.1908 223° Southwest 456 525 28,800 -1,800 Descending Miami Center
05:13PM 24.2261 -82.2828 225° Southwest 450 518 27,300 -1,860 Descending Miami Center
05:14PM 24.1417 -82.3656 222° Southwest 425 489 25,100 -1,860 Descending Miami Center
05:15PM 24.0678 -82.4442 224° Southwest 414 476 23,600 -1,500 Descending Miami Center
05:17PM 23.8913 -82.4384 178° South  Level Estimated
05:24PM 23.0677 -82.4116 178° South  Level Estimated
05:25PM 22.9891 -82.4091 178° South  Level Estimated
05:26PM 22.9891 -82.4091 51° Northeast  Level Estimated
05:27PM 22.9891 -82.4091 51° Northeast  Level Estimated
05:28PM 22.9891 -82.4091 51° Northeast  Level Estimated
05:29PM 22.9891 -82.4091 51° Northeast  Level Estimated
05:30PM 22.9891 -82.4091 51° Northeast  Level Estimated
05:31PM 22.9891 -82.4091 51° Northeast  Level Estimated
05:32PM 22.9891 -82.4091 51° Northeast  Level Estimated
05:33PM 22.9891 -82.4091 51° Northeast  Level Estimated
05:34PM 22.9891 -82.4091 51° Northeast  Level Estimated
05:35PM 22.9891 -82.4091 51° Northeast  Level Estimated
05:36PM 22.9891 -82.4091 51° Northeast  Level Estimated
05:37PM 22.9891 -82.4091 51° Northeast  Level Estimated
05:38PM 22.9891 -82.4091 51° Northeast  Level Estimated